CCA1322 ZGGG-ZBAA
Flight info
| Callsign | CCA1322 |
|---|---|
| Flight time | N/A |
| Altitude | 40100 |
| Route | MIKIP9 MIKIP A461 BUBDA W56 DUGEB DUGEB4A |
| Aircraft | A333/H-SDE3GHIJ2J3J5M1RVWXY/LB2D1 |
Departure
| Time | 2026-04-30 06:24 |
|---|---|
| Airport | Guangzhou Baiyun International Airport (ZGGG) |
Arrival
| Time | N/A |
|---|---|
| Airport | Beijing Capital International Airport (ZBAA) |
| Time | Latitude | Longitude | Altitude | Speed | Heading |
|---|---|---|---|---|---|
| 2026-04-30 05:56 | 23.38553 | 113.29299 | 61 ft | 0 kts | 336° |
| 2026-04-30 05:57 | 23.38554 | 113.29299 | 62 ft | 0 kts | 336° |
| 2026-04-30 06:12 | 23.38540 | 113.29305 | 70 ft | 4 kts | 336° |
| 2026-04-30 06:13 | 23.38519 | 113.29316 | 53 ft | 2 kts | 336° |
| 2026-04-30 06:13 | 23.38498 | 113.29331 | 53 ft | 4 kts | 303° |
| 2026-04-30 06:13 | 23.38490 | 113.29357 | 54 ft | 4 kts | 270° |
| 2026-04-30 06:13 | 23.38493 | 113.29382 | 53 ft | 1 kts | 246° |
| 2026-04-30 06:14 | 23.38494 | 113.29383 | 53 ft | 0 kts | 246° |
| 2026-04-30 06:16 | 23.38492 | 113.29380 | 53 ft | 3 kts | 246° |
| 2026-04-30 06:17 | 23.38469 | 113.29324 | 53 ft | 13 kts | 246° |
| 2026-04-30 06:17 | 23.38429 | 113.29225 | 55 ft | 15 kts | 246° |
| 2026-04-30 06:17 | 23.38405 | 113.29128 | 55 ft | 10 kts | 278° |
| 2026-04-30 06:17 | 23.38422 | 113.29044 | 60 ft | 14 kts | 283° |
| 2026-04-30 06:18 | 23.38449 | 113.28925 | 54 ft | 19 kts | 284° |
| 2026-04-30 06:18 | 23.38464 | 113.28774 | 57 ft | 20 kts | 243° |
| 2026-04-30 06:18 | 23.38345 | 113.28721 | 54 ft | 19 kts | 194° |
| 2026-04-30 06:18 | 23.38201 | 113.28681 | 59 ft | 23 kts | 193° |
| 2026-04-30 06:19 | 23.38042 | 113.28640 | 58 ft | 24 kts | 195° |
| 2026-04-30 06:19 | 23.37882 | 113.28596 | 57 ft | 24 kts | 194° |
| 2026-04-30 06:19 | 23.37724 | 113.28554 | 59 ft | 18 kts | 194° |
| 2026-04-30 06:19 | 23.37678 | 113.28515 | 55 ft | 2 kts | 257° |
| 2026-04-30 06:20 | 23.37679 | 113.28485 | 60 ft | 5 kts | 280° |
| 2026-04-30 06:20 | 23.37681 | 113.28477 | 61 ft | 0 kts | 282° |
| 2026-04-30 06:20 | 23.37683 | 113.28468 | 58 ft | 6 kts | 282° |
| 2026-04-30 06:21 | 23.37707 | 113.28378 | 58 ft | 13 kts | 304° |
| 2026-04-30 06:21 | 23.37741 | 113.28366 | 54 ft | 4 kts | 8° |
| 2026-04-30 06:21 | 23.37762 | 113.28371 | 56 ft | 0 kts | 13° |
| 2026-04-30 06:23 | 23.37800 | 113.28381 | 54 ft | 25 kts | 13° |
| 2026-04-30 06:23 | 23.38185 | 113.28485 | 56 ft | 87 kts | 14° |
| 2026-04-30 06:23 | 23.38961 | 113.28694 | 59 ft | 141 kts | 14° |
| 2026-04-30 06:24 | 23.40060 | 113.28988 | 222 ft | 179 kts | 14° |
| 2026-04-30 06:24 | 23.41360 | 113.29331 | 637 ft | 203 kts | 14° |
| 2026-04-30 06:24 | 23.42806 | 113.29692 | 1181 ft | 223 kts | 13° |
| 2026-04-30 06:24 | 23.44277 | 113.30075 | 2182 ft | 218 kts | 14° |
| 2026-04-30 06:25 | 23.45803 | 113.30457 | 2729 ft | 234 kts | 11° |
| 2026-04-30 06:25 | 23.47462 | 113.30742 | 3356 ft | 244 kts | 8° |
| 2026-04-30 06:25 | 23.49168 | 113.30953 | 4119 ft | 249 kts | 6° |
| 2026-04-30 06:25 | 23.50929 | 113.31143 | 4800 ft | 260 kts | 5° |
| 2026-04-30 06:26 | 23.52736 | 113.31333 | 5487 ft | 269 kts | 4° |
| 2026-04-30 06:26 | 23.54613 | 113.31544 | 6258 ft | 274 kts | 4° |
| 2026-04-30 06:26 | 23.56521 | 113.31774 | 7058 ft | 277 kts | 4° |
| 2026-04-30 06:26 | 23.58449 | 113.32017 | 7878 ft | 281 kts | 3° |
| 2026-04-30 06:27 | 23.60405 | 113.32269 | 8667 ft | 285 kts | 3° |
| 2026-04-30 06:27 | 23.62390 | 113.32527 | 9463 ft | 289 kts | 4° |
| 2026-04-30 06:27 | 23.64403 | 113.32789 | 10202 ft | 294 kts | 4° |
| 2026-04-30 06:27 | 23.66497 | 113.33060 | 10550 ft | 313 kts | 4° |
| 2026-04-30 06:28 | 23.68701 | 113.33343 | 10806 ft | 333 kts | 4° |
| 2026-04-30 06:28 | 23.71072 | 113.33651 | 11032 ft | 352 kts | 4° |
| 2026-04-30 06:28 | 23.73569 | 113.33976 | 11281 ft | 369 kts | 4° |
| 2026-04-30 06:28 | 23.76154 | 113.34315 | 11713 ft | 378 kts | 4° |
| 2026-04-30 06:29 | 23.78791 | 113.34662 | 12299 ft | 383 kts | 4° |
| 2026-04-30 06:29 | 23.81464 | 113.35015 | 12914 ft | 387 kts | 4° |
| 2026-04-30 06:29 | 23.84147 | 113.35368 | 13532 ft | 390 kts | 4° |
| 2026-04-30 06:29 | 23.86831 | 113.35721 | 14107 ft | 394 kts | 4° |
| 2026-04-30 06:30 | 23.89562 | 113.36079 | 14621 ft | 397 kts | 4° |
| 2026-04-30 06:30 | 23.92323 | 113.36442 | 15140 ft | 401 kts | 4° |
| 2026-04-30 06:30 | 23.95110 | 113.36807 | 15692 ft | 405 kts | 4° |
| 2026-04-30 06:30 | 23.97921 | 113.37173 | 16196 ft | 409 kts | 4° |
| 2026-04-30 06:31 | 24.00732 | 113.37539 | 16711 ft | 412 kts | 4° |
| 2026-04-30 06:31 | 24.03598 | 113.37913 | 17233 ft | 416 kts | 4° |
| 2026-04-30 06:31 | 24.06477 | 113.38289 | 17769 ft | 418 kts | 4° |
| 2026-04-30 06:31 | 24.09384 | 113.38671 | 18264 ft | 421 kts | 3° |
| 2026-04-30 06:32 | 24.12308 | 113.39055 | 18683 ft | 425 kts | 3° |
| 2026-04-30 06:32 | 24.15261 | 113.39443 | 19071 ft | 428 kts | 4° |
| 2026-04-30 06:32 | 24.18236 | 113.39833 | 19467 ft | 431 kts | 4° |
| 2026-04-30 06:32 | 24.21228 | 113.40226 | 19872 ft | 434 kts | 4° |
| 2026-04-30 06:33 | 24.24200 | 113.40617 | 20250 ft | 437 kts | 4° |
| 2026-04-30 06:33 | 24.27227 | 113.41015 | 20639 ft | 439 kts | 4° |
| 2026-04-30 06:33 | 24.30279 | 113.41417 | 21030 ft | 442 kts | 4° |
| 2026-04-30 06:33 | 24.33349 | 113.41814 | 21418 ft | 444 kts | 2° |
| 2026-04-30 06:34 | 24.36437 | 113.42022 | 21803 ft | 446 kts | 360° |
| 2026-04-30 06:34 | 24.39541 | 113.42165 | 22219 ft | 447 kts | 359° |
| 2026-04-30 06:34 | 24.42658 | 113.42270 | 22599 ft | 450 kts | 359° |
| 2026-04-30 06:34 | 24.45806 | 113.42356 | 22987 ft | 452 kts | 358° |
| 2026-04-30 06:35 | 24.48967 | 113.42435 | 23374 ft | 455 kts | 358° |
| 2026-04-30 06:35 | 24.52097 | 113.42513 | 23748 ft | 458 kts | 358° |
| 2026-04-30 06:35 | 24.55304 | 113.42597 | 24085 ft | 460 kts | 358° |
| 2026-04-30 06:35 | 24.58516 | 113.42684 | 24418 ft | 462 kts | 358° |
| 2026-04-30 06:36 | 24.61741 | 113.42774 | 24743 ft | 464 kts | 358° |
| 2026-04-30 06:36 | 24.64977 | 113.42867 | 25081 ft | 466 kts | 358° |
| 2026-04-30 06:36 | 24.68221 | 113.42965 | 25461 ft | 467 kts | 358° |
| 2026-04-30 06:36 | 24.71487 | 113.43058 | 25812 ft | 469 kts | 358° |
| 2026-04-30 06:37 | 24.74760 | 113.43150 | 26157 ft | 471 kts | 358° |
| 2026-04-30 06:37 | 24.78051 | 113.43241 | 26504 ft | 473 kts | 358° |
| 2026-04-30 06:37 | 24.81310 | 113.43331 | 26842 ft | 476 kts | 358° |
| 2026-04-30 06:37 | 24.84630 | 113.43424 | 27180 ft | 478 kts | 358° |
| 2026-04-30 06:38 | 24.87965 | 113.43518 | 27514 ft | 480 kts | 358° |
| 2026-04-30 06:38 | 24.91318 | 113.43613 | 27836 ft | 482 kts | 358° |
| 2026-04-30 06:38 | 24.94683 | 113.43710 | 28184 ft | 484 kts | 357° |
| 2026-04-30 06:38 | 24.98063 | 113.43807 | 28529 ft | 486 kts | 357° |
| 2026-04-30 06:39 | 25.01456 | 113.43903 | 28847 ft | 488 kts | 357° |
| 2026-04-30 06:39 | 25.04817 | 113.43999 | 29150 ft | 490 kts | 357° |
| 2026-04-30 06:39 | 25.08244 | 113.44096 | 29446 ft | 492 kts | 357° |
| 2026-04-30 06:39 | 25.11680 | 113.44194 | 29738 ft | 495 kts | 357° |
| 2026-04-30 06:40 | 25.15126 | 113.44293 | 30066 ft | 496 kts | 357° |
| 2026-04-30 06:40 | 25.18569 | 113.44393 | 30462 ft | 494 kts | 357° |
| 2026-04-30 06:40 | 25.22003 | 113.44493 | 30873 ft | 492 kts | 357° |
| 2026-04-30 06:40 | 25.25423 | 113.44593 | 31284 ft | 489 kts | 356° |
| 2026-04-30 06:41 | 25.28825 | 113.44691 | 31603 ft | 490 kts | 356° |
| 2026-04-30 06:41 | 25.32186 | 113.44788 | 32002 ft | 488 kts | 356° |
| 2026-04-30 06:41 | 25.35564 | 113.44886 | 32499 ft | 485 kts | 356° |
| 2026-04-30 06:41 | 25.38931 | 113.44983 | 32955 ft | 482 kts | 356° |
| 2026-04-30 06:42 | 25.42282 | 113.45080 | 33397 ft | 481 kts | 356° |
| 2026-04-30 06:42 | 25.45621 | 113.45176 | 33783 ft | 480 kts | 356° |
| 2026-04-30 06:42 | 25.48961 | 113.45272 | 34096 ft | 480 kts | 355° |
| 2026-04-30 06:42 | 25.52296 | 113.45368 | 34446 ft | 478 kts | 355° |
| 2026-04-30 06:43 | 25.55619 | 113.45464 | 34765 ft | 477 kts | 355° |
| 2026-04-30 06:43 | 25.58941 | 113.45558 | 35025 ft | 477 kts | 355° |
| 2026-04-30 06:43 | 25.62267 | 113.45654 | 35284 ft | 477 kts | 355° |
| 2026-04-30 06:43 | 25.65594 | 113.45749 | 35542 ft | 477 kts | 355° |
| 2026-04-30 06:44 | 25.68907 | 113.45844 | 35874 ft | 476 kts | 356° |
| 2026-04-30 06:44 | 25.72215 | 113.45940 | 36139 ft | 476 kts | 355° |
| 2026-04-30 06:44 | 25.75521 | 113.46036 | 36422 ft | 475 kts | 356° |
| 2026-04-30 06:44 | 25.78826 | 113.46131 | 36690 ft | 475 kts | 355° |
| 2026-04-30 06:45 | 25.82127 | 113.46226 | 36947 ft | 475 kts | 355° |
| 2026-04-30 06:45 | 25.85385 | 113.46320 | 37227 ft | 474 kts | 355° |
| 2026-04-30 06:45 | 25.88675 | 113.46352 | 37535 ft | 472 kts | 353° |
| 2026-04-30 06:45 | 25.91951 | 113.46275 | 37799 ft | 470 kts | 352° |
| 2026-04-30 06:46 | 25.95216 | 113.46142 | 38051 ft | 469 kts | 352° |
| 2026-04-30 06:46 | 25.98472 | 113.45989 | 38308 ft | 468 kts | 352° |
| 2026-04-30 06:46 | 26.01727 | 113.45835 | 38560 ft | 468 kts | 352° |
| 2026-04-30 06:46 | 26.04989 | 113.45688 | 38779 ft | 468 kts | 352° |
| 2026-04-30 06:47 | 26.08238 | 113.45550 | 39018 ft | 467 kts | 352° |
| 2026-04-30 06:47 | 26.11489 | 113.45419 | 39198 ft | 467 kts | 352° |
| 2026-04-30 06:47 | 26.14741 | 113.45292 | 39381 ft | 467 kts | 352° |
| 2026-04-30 06:47 | 26.17985 | 113.45168 | 39582 ft | 466 kts | 352° |
| 2026-04-30 06:48 | 26.21186 | 113.45046 | 39767 ft | 466 kts | 351° |
| 2026-04-30 06:48 | 26.24427 | 113.44924 | 39955 ft | 465 kts | 351° |
| 2026-04-30 06:48 | 26.27666 | 113.44800 | 40129 ft | 465 kts | 351° |
| 2026-04-30 06:49 | 26.34128 | 113.44554 | 40214 ft | 463 kts | 351° |
| 2026-04-30 06:49 | 26.40570 | 113.44308 | 40214 ft | 460 kts | 351° |
| 2026-04-30 06:50 | 26.46944 | 113.44062 | 40216 ft | 461 kts | 351° |
| 2026-04-30 06:50 | 26.53361 | 113.43814 | 40219 ft | 461 kts | 351° |
| 2026-04-30 06:51 | 26.59771 | 113.43567 | 40221 ft | 461 kts | 351° |
| 2026-04-30 06:51 | 26.66178 | 113.43321 | 40231 ft | 461 kts | 351° |
| 2026-04-30 06:52 | 26.72554 | 113.43077 | 40221 ft | 460 kts | 351° |
| 2026-04-30 06:52 | 26.78953 | 113.42830 | 40225 ft | 460 kts | 351° |
| 2026-04-30 06:53 | 26.85366 | 113.42583 | 40227 ft | 460 kts | 351° |
| 2026-04-30 06:53 | 26.91774 | 113.42337 | 40229 ft | 460 kts | 351° |
| 2026-04-30 06:54 | 26.98162 | 113.42092 | 40232 ft | 457 kts | 351° |
| 2026-04-30 06:54 | 27.04480 | 113.41848 | 40235 ft | 456 kts | 351° |
| 2026-04-30 06:55 | 27.10835 | 113.41601 | 40231 ft | 456 kts | 351° |
| 2026-04-30 06:55 | 27.17183 | 113.41354 | 40231 ft | 456 kts | 351° |
| 2026-04-30 06:56 | 27.23522 | 113.41110 | 40239 ft | 454 kts | 350° |
| 2026-04-30 06:56 | 27.28744 | 113.40911 | 40236 ft | 450 kts | 350° |
| 2026-04-30 06:57 | 27.35012 | 113.40741 | 40236 ft | 451 kts | 352° |
| 2026-04-30 06:57 | 27.41270 | 113.40839 | 40235 ft | 453 kts | 353° |
| 2026-04-30 06:58 | 27.47566 | 113.41008 | 40263 ft | 453 kts | 353° |
| 2026-04-30 06:58 | 27.53861 | 113.41160 | 40240 ft | 450 kts | 353° |
| 2026-04-30 06:59 | 27.60116 | 113.41292 | 40241 ft | 448 kts | 353° |
| 2026-04-30 06:59 | 27.66354 | 113.41448 | 40246 ft | 450 kts | 354° |
| 2026-04-30 07:00 | 27.72584 | 113.41926 | 40242 ft | 452 kts | 356° |
| 2026-04-30 07:00 | 27.78871 | 113.42537 | 40247 ft | 453 kts | 356° |
| 2026-04-30 07:01 | 27.85164 | 113.43134 | 40243 ft | 453 kts | 356° |
| 2026-04-30 07:01 | 27.88352 | 113.43426 | 40243 ft | 452 kts | 356° |
| 2026-04-30 07:02 | 27.94622 | 113.43983 | 40244 ft | 452 kts | 356° |
| 2026-04-30 07:02 | 28.00862 | 113.44526 | 40256 ft | 451 kts | 355° |
| 2026-04-30 07:03 | 28.07142 | 113.45070 | 40251 ft | 454 kts | 355° |
| 2026-04-30 07:03 | 28.13474 | 113.45572 | 40246 ft | 456 kts | 354° |
| 2026-04-30 07:04 | 28.19815 | 113.46018 | 40246 ft | 456 kts | 354° |
| 2026-04-30 07:04 | 28.26156 | 113.46463 | 40249 ft | 456 kts | 354° |
| 2026-04-30 07:05 | 28.35629 | 113.47141 | 40246 ft | 455 kts | 354° |
| 2026-04-30 07:05 | 28.41959 | 113.47596 | 40246 ft | 455 kts | 354° |
| 2026-04-30 07:06 | 28.48287 | 113.48047 | 40249 ft | 455 kts | 354° |
| 2026-04-30 07:06 | 28.54578 | 113.48496 | 40250 ft | 456 kts | 354° |
| 2026-04-30 07:07 | 28.60902 | 113.48950 | 40248 ft | 454 kts | 353° |
| 2026-04-30 07:07 | 28.67191 | 113.49402 | 40244 ft | 452 kts | 353° |
| 2026-04-30 07:08 | 28.73472 | 113.49851 | 40242 ft | 452 kts | 353° |
| 2026-04-30 07:08 | 28.79756 | 113.50301 | 40244 ft | 452 kts | 353° |
| 2026-04-30 07:09 | 28.85999 | 113.50749 | 40246 ft | 452 kts | 353° |
| 2026-04-30 07:09 | 28.92267 | 113.51201 | 40242 ft | 450 kts | 353° |
| 2026-04-30 07:10 | 28.98530 | 113.51650 | 40245 ft | 451 kts | 353° |
| 2026-04-30 07:10 | 29.04789 | 113.52100 | 40241 ft | 450 kts | 353° |
| 2026-04-30 07:11 | 29.11041 | 113.52552 | 40244 ft | 450 kts | 353° |
| 2026-04-30 07:11 | 29.17297 | 113.53004 | 40240 ft | 450 kts | 353° |
| 2026-04-30 07:12 | 29.23512 | 113.53453 | 40240 ft | 450 kts | 353° |
| 2026-04-30 07:12 | 29.29769 | 113.53917 | 40241 ft | 451 kts | 353° |
| 2026-04-30 07:13 | 29.36035 | 113.54446 | 40262 ft | 451 kts | 354° |
| 2026-04-30 07:13 | 29.42286 | 113.55002 | 40235 ft | 448 kts | 354° |
| 2026-04-30 07:14 | 29.48499 | 113.55550 | 40233 ft | 447 kts | 353° |
| 2026-04-30 07:14 | 29.54676 | 113.56085 | 40232 ft | 447 kts | 353° |
| 2026-04-30 07:15 | 29.60890 | 113.56624 | 40232 ft | 447 kts | 353° |
| 2026-04-30 07:15 | 29.67077 | 113.57165 | 40230 ft | 443 kts | 353° |
| 2026-04-30 07:16 | 29.73204 | 113.57702 | 40230 ft | 441 kts | 353° |
| 2026-04-30 07:16 | 29.79285 | 113.58228 | 40229 ft | 441 kts | 353° |
| 2026-04-30 07:17 | 29.85411 | 113.58760 | 40227 ft | 441 kts | 353° |
| 2026-04-30 07:18 | 29.94558 | 113.59992 | 40227 ft | 452 kts | 4° |
| 2026-04-30 07:18 | 30.00579 | 113.62501 | 40227 ft | 463 kts | 11° |
| 2026-04-30 07:19 | 30.06531 | 113.65442 | 40228 ft | 467 kts | 12° |
| 2026-04-30 07:19 | 30.12485 | 113.68472 | 40261 ft | 467 kts | 12° |
| 2026-04-30 07:20 | 30.18407 | 113.71472 | 40220 ft | 462 kts | 11° |
| 2026-04-30 07:20 | 30.24257 | 113.74409 | 40222 ft | 460 kts | 11° |
| 2026-04-30 07:21 | 30.30145 | 113.77350 | 40219 ft | 462 kts | 11° |
| 2026-04-30 07:21 | 30.36054 | 113.80307 | 40270 ft | 463 kts | 11° |
| 2026-04-30 07:22 | 30.44890 | 113.84755 | 40216 ft | 458 kts | 11° |
| 2026-04-30 07:22 | 30.50710 | 113.87684 | 40216 ft | 458 kts | 11° |
| 2026-04-30 07:23 | 30.56557 | 113.90628 | 40215 ft | 458 kts | 11° |
| 2026-04-30 07:23 | 30.62434 | 113.93587 | 40209 ft | 462 kts | 11° |
| 2026-04-30 07:24 | 30.68366 | 113.96495 | 40209 ft | 462 kts | 10° |
| 2026-04-30 07:24 | 30.74274 | 113.99559 | 40204 ft | 467 kts | 13° |
| 2026-04-30 07:25 | 30.80137 | 114.02846 | 40203 ft | 467 kts | 13° |
| 2026-04-30 07:25 | 30.86003 | 114.06075 | 40209 ft | 466 kts | 13° |
| 2026-04-30 07:26 | 30.91846 | 114.09245 | 40214 ft | 467 kts | 12° |
| 2026-04-30 07:26 | 30.97761 | 114.12446 | 40211 ft | 468 kts | 12° |
| 2026-04-30 07:27 | 31.03665 | 114.15653 | 40215 ft | 468 kts | 12° |
| 2026-04-30 07:27 | 31.09569 | 114.18863 | 40215 ft | 468 kts | 13° |
| 2026-04-30 07:28 | 31.15466 | 114.22073 | 40217 ft | 467 kts | 12° |
| 2026-04-30 07:28 | 31.21367 | 114.25287 | 40204 ft | 467 kts | 13° |
| 2026-04-30 07:29 | 31.27259 | 114.28499 | 40212 ft | 467 kts | 13° |
| 2026-04-30 07:29 | 31.33163 | 114.31614 | 40211 ft | 458 kts | 7° |
| 2026-04-30 07:30 | 31.39145 | 114.33160 | 40214 ft | 431 kts | 353° |
| 2026-04-30 07:30 | 31.42127 | 114.33396 | 40211 ft | 428 kts | 351° |
| 2026-04-30 07:31 | 31.48074 | 114.33618 | 40207 ft | 426 kts | 349° |
| 2026-04-30 07:31 | 31.54010 | 114.33742 | 40209 ft | 426 kts | 349° |
| 2026-04-30 07:32 | 31.59910 | 114.33883 | 40208 ft | 427 kts | 350° |
| 2026-04-30 07:32 | 31.65861 | 114.34051 | 40207 ft | 427 kts | 350° |
| 2026-04-30 07:33 | 31.71808 | 114.34217 | 40194 ft | 427 kts | 350° |
| 2026-04-30 07:33 | 31.77748 | 114.34394 | 40196 ft | 427 kts | 350° |
| 2026-04-30 07:34 | 31.83660 | 114.34584 | 40195 ft | 427 kts | 351° |
| 2026-04-30 07:34 | 31.89601 | 114.34771 | 40194 ft | 426 kts | 350° |
| 2026-04-30 07:35 | 31.95533 | 114.34951 | 40191 ft | 426 kts | 350° |
| 2026-04-30 07:35 | 32.01473 | 114.35130 | 40191 ft | 426 kts | 350° |
| 2026-04-30 07:36 | 32.07415 | 114.35308 | 40191 ft | 426 kts | 351° |
| 2026-04-30 07:36 | 32.13351 | 114.35488 | 40189 ft | 426 kts | 351° |
| 2026-04-30 07:37 | 32.19243 | 114.35667 | 40184 ft | 426 kts | 351° |
| 2026-04-30 07:37 | 32.25177 | 114.35852 | 40183 ft | 427 kts | 351° |
| 2026-04-30 07:38 | 32.31141 | 114.36274 | 40184 ft | 430 kts | 353° |
| 2026-04-30 07:38 | 32.37125 | 114.36855 | 40177 ft | 431 kts | 354° |
| 2026-04-30 07:39 | 32.43103 | 114.37438 | 40175 ft | 431 kts | 354° |
| 2026-04-30 07:39 | 32.49086 | 114.37999 | 40175 ft | 431 kts | 354° |
| 2026-04-30 07:40 | 32.55043 | 114.38544 | 40181 ft | 431 kts | 354° |
| 2026-04-30 07:40 | 32.61028 | 114.39091 | 40166 ft | 431 kts | 354° |
| 2026-04-30 07:41 | 32.67015 | 114.39641 | 40170 ft | 431 kts | 354° |
| 2026-04-30 07:41 | 32.72965 | 114.40193 | 40174 ft | 431 kts | 354° |
| 2026-04-30 07:42 | 32.78954 | 114.40752 | 40170 ft | 431 kts | 354° |
| 2026-04-30 07:42 | 32.84947 | 114.41311 | 40167 ft | 431 kts | 354° |
| 2026-04-30 07:43 | 32.90930 | 114.41870 | 40161 ft | 431 kts | 354° |
| 2026-04-30 07:43 | 32.95903 | 114.42335 | 40161 ft | 431 kts | 354° |
| 2026-04-30 07:44 | 33.02856 | 114.42986 | 40170 ft | 431 kts | 355° |
| 2026-04-30 07:44 | 33.08834 | 114.43547 | 40161 ft | 430 kts | 355° |
| 2026-04-30 07:45 | 33.13834 | 114.44017 | 40159 ft | 430 kts | 355° |
| 2026-04-30 07:45 | 33.19762 | 114.44573 | 40156 ft | 430 kts | 355° |
| 2026-04-30 07:46 | 33.25734 | 114.45135 | 40164 ft | 430 kts | 355° |
| 2026-04-30 07:46 | 33.31702 | 114.45697 | 40150 ft | 429 kts | 355° |
| 2026-04-30 07:47 | 33.37619 | 114.46253 | 40148 ft | 429 kts | 355° |
| 2026-04-30 07:47 | 33.43573 | 114.46813 | 40142 ft | 429 kts | 355° |
| 2026-04-30 07:48 | 33.49524 | 114.47374 | 40162 ft | 429 kts | 356° |
| 2026-04-30 07:48 | 33.55489 | 114.47938 | 40142 ft | 430 kts | 356° |
| 2026-04-30 07:49 | 33.61452 | 114.48501 | 40142 ft | 430 kts | 356° |
| 2026-04-30 07:49 | 33.67414 | 114.49060 | 40139 ft | 430 kts | 356° |
| 2026-04-30 07:50 | 33.73381 | 114.49617 | 40149 ft | 430 kts | 356° |
| 2026-04-30 07:50 | 33.79360 | 114.50176 | 40136 ft | 430 kts | 356° |
| 2026-04-30 07:51 | 33.85302 | 114.50734 | 40137 ft | 430 kts | 356° |
| 2026-04-30 07:51 | 33.91274 | 114.51296 | 40134 ft | 430 kts | 356° |
| 2026-04-30 07:52 | 33.97242 | 114.51860 | 40134 ft | 430 kts | 356° |
| 2026-04-30 07:52 | 34.03222 | 114.52425 | 40131 ft | 430 kts | 356° |
| 2026-04-30 07:53 | 34.09192 | 114.52990 | 40126 ft | 430 kts | 356° |
| 2026-04-30 07:53 | 34.15157 | 114.53555 | 40123 ft | 430 kts | 356° |
| 2026-04-30 07:54 | 34.21091 | 114.54117 | 40127 ft | 430 kts | 357° |
| 2026-04-30 07:54 | 34.27077 | 114.54685 | 40126 ft | 432 kts | 357° |
| 2026-04-30 07:55 | 34.33072 | 114.55256 | 40113 ft | 432 kts | 357° |
| 2026-04-30 07:55 | 34.39072 | 114.55828 | 40111 ft | 432 kts | 357° |
| 2026-04-30 07:56 | 34.45063 | 114.56400 | 40120 ft | 432 kts | 357° |
| 2026-04-30 07:56 | 34.51032 | 114.56966 | 40105 ft | 433 kts | 357° |
| 2026-04-30 07:57 | 34.57046 | 114.57536 | 40100 ft | 433 kts | 357° |
| 2026-04-30 07:57 | 34.63050 | 114.58105 | 40099 ft | 433 kts | 357° |
| 2026-04-30 07:58 | 34.69021 | 114.58672 | 40092 ft | 433 kts | 358° |
| 2026-04-30 07:58 | 34.75033 | 114.59244 | 40085 ft | 433 kts | 358° |
| 2026-04-30 07:59 | 34.81054 | 114.59818 | 40085 ft | 433 kts | 358° |
| 2026-04-30 07:59 | 34.87074 | 114.60393 | 40083 ft | 433 kts | 358° |
| 2026-04-30 08:00 | 34.96077 | 114.61254 | 40079 ft | 433 kts | 358° |
| 2026-04-30 08:00 | 35.02088 | 114.61830 | 40074 ft | 433 kts | 358° |
| 2026-04-30 08:01 | 35.08106 | 114.62408 | 40073 ft | 433 kts | 358° |
| 2026-04-30 08:01 | 35.14125 | 114.62986 | 40065 ft | 433 kts | 359° |
| 2026-04-30 08:02 | 35.23101 | 114.63851 | 40063 ft | 433 kts | 359° |
| 2026-04-30 08:03 | 35.35125 | 114.65011 | 40063 ft | 433 kts | 359° |
| 2026-04-30 08:04 | 35.41131 | 114.65592 | 40055 ft | 433 kts | 359° |
| 2026-04-30 08:04 | 35.47098 | 114.66170 | 40047 ft | 433 kts | 359° |
| 2026-04-30 08:05 | 35.53102 | 114.66753 | 40047 ft | 433 kts | 359° |
| 2026-04-30 08:05 | 35.59116 | 114.67338 | 40050 ft | 432 kts | 359° |
| 2026-04-30 08:06 | 35.65084 | 114.67919 | 40042 ft | 431 kts | 359° |
| 2026-04-30 08:06 | 35.71067 | 114.68502 | 40041 ft | 431 kts | 359° |
| 2026-04-30 08:07 | 35.77046 | 114.69086 | 40040 ft | 431 kts | 359° |
| 2026-04-30 08:07 | 35.82996 | 114.69667 | 40034 ft | 430 kts | 359° |
| 2026-04-30 08:08 | 35.88963 | 114.70252 | 40034 ft | 430 kts | 359° |
| 2026-04-30 08:08 | 35.94941 | 114.70839 | 40036 ft | 430 kts | 359° |
| 2026-04-30 08:09 | 36.00907 | 114.71425 | 40037 ft | 430 kts | 359° |
| 2026-04-30 08:09 | 36.06874 | 114.72014 | 40031 ft | 430 kts | 359° |
| 2026-04-30 08:10 | 36.12836 | 114.72598 | 40036 ft | 430 kts | 359° |
| 2026-04-30 08:10 | 36.18795 | 114.73179 | 40029 ft | 429 kts | 359° |
| 2026-04-30 08:11 | 36.24754 | 114.73762 | 40028 ft | 429 kts | 359° |
| 2026-04-30 08:11 | 36.30672 | 114.74347 | 40026 ft | 429 kts | 359° |
| 2026-04-30 08:12 | 36.36632 | 114.75279 | 40029 ft | 435 kts | 8° |
| 2026-04-30 08:12 | 36.42389 | 114.77862 | 40027 ft | 443 kts | 17° |
| 2026-04-30 08:13 | 36.48023 | 114.81047 | 40024 ft | 445 kts | 19° |
| 2026-04-30 08:13 | 36.53624 | 114.84346 | 40025 ft | 445 kts | 19° |
| 2026-04-30 08:14 | 36.59228 | 114.87635 | 40026 ft | 445 kts | 19° |
| 2026-04-30 08:14 | 36.64836 | 114.90904 | 40035 ft | 445 kts | 19° |
| 2026-04-30 08:15 | 36.70450 | 114.94169 | 40026 ft | 445 kts | 19° |
| 2026-04-30 08:15 | 36.76025 | 114.97416 | 40028 ft | 445 kts | 19° |
| 2026-04-30 08:16 | 36.81643 | 115.00694 | 40031 ft | 445 kts | 19° |
| 2026-04-30 08:16 | 36.87258 | 115.03977 | 40028 ft | 446 kts | 19° |
| 2026-04-30 08:17 | 36.92876 | 115.07267 | 40027 ft | 446 kts | 19° |
| 2026-04-30 08:17 | 36.98457 | 115.10542 | 40025 ft | 446 kts | 19° |
| 2026-04-30 08:18 | 37.04071 | 115.13841 | 40035 ft | 446 kts | 19° |
| 2026-04-30 08:18 | 37.09686 | 115.17146 | 40031 ft | 445 kts | 19° |
| 2026-04-30 08:19 | 37.15299 | 115.20454 | 40029 ft | 445 kts | 19° |
| 2026-04-30 08:19 | 37.20909 | 115.23768 | 40028 ft | 445 kts | 19° |
| 2026-04-30 08:20 | 37.26478 | 115.27061 | 40029 ft | 445 kts | 19° |
| 2026-04-30 08:20 | 37.32086 | 115.30383 | 40030 ft | 445 kts | 19° |
| 2026-04-30 08:21 | 37.37686 | 115.33706 | 40047 ft | 445 kts | 19° |
| 2026-04-30 08:21 | 37.43304 | 115.37045 | 40027 ft | 446 kts | 20° |
| 2026-04-30 08:22 | 37.48890 | 115.40371 | 40031 ft | 446 kts | 20° |
| 2026-04-30 08:22 | 37.54503 | 115.43719 | 40031 ft | 446 kts | 20° |
| 2026-04-30 08:23 | 37.60120 | 115.47075 | 40029 ft | 446 kts | 20° |
| 2026-04-30 08:23 | 37.65738 | 115.50437 | 40026 ft | 446 kts | 20° |
| 2026-04-30 08:24 | 37.71352 | 115.53802 | 40030 ft | 446 kts | 20° |
| 2026-04-30 08:24 | 37.77013 | 115.56995 | 40028 ft | 442 kts | 13° |
| 2026-04-30 08:25 | 37.82954 | 115.58456 | 40030 ft | 431 kts | 358° |
| 2026-04-30 08:25 | 37.88890 | 115.58318 | 40029 ft | 429 kts | 354° |
| 2026-04-30 08:26 | 37.94848 | 115.57862 | 40015 ft | 429 kts | 353° |
| 2026-04-30 08:26 | 38.00807 | 115.57366 | 40014 ft | 429 kts | 353° |
| 2026-04-30 08:27 | 38.06768 | 115.56900 | 40014 ft | 429 kts | 353° |
| 2026-04-30 08:27 | 38.12735 | 115.56547 | 40014 ft | 429 kts | 354° |
| 2026-04-30 08:28 | 38.18702 | 115.56166 | 40025 ft | 429 kts | 354° |
| 2026-04-30 08:28 | 38.24678 | 115.55928 | 40013 ft | 432 kts | 1° |
| 2026-04-30 08:28 | 38.27652 | 115.56575 | 40005 ft | 437 kts | 12° |
| 2026-04-30 08:29 | 38.30524 | 115.57925 | 40005 ft | 442 kts | 18° |
| 2026-04-30 08:29 | 38.36103 | 115.61206 | 40002 ft | 446 kts | 21° |
| 2026-04-30 08:30 | 38.41645 | 115.64767 | 40025 ft | 446 kts | 22° |
| 2026-04-30 08:30 | 38.47201 | 115.68343 | 40006 ft | 447 kts | 21° |
| 2026-04-30 08:31 | 38.52768 | 115.71879 | 40003 ft | 447 kts | 21° |
| 2026-04-30 08:31 | 38.58340 | 115.75403 | 40000 ft | 446 kts | 21° |
| 2026-04-30 08:32 | 38.63914 | 115.78935 | 40000 ft | 447 kts | 21° |
| 2026-04-30 08:32 | 38.69101 | 115.83430 | 39995 ft | 455 kts | 34° |
| 2026-04-30 08:33 | 38.73140 | 115.87786 | 39997 ft | 456 kts | 35° |
| 2026-04-30 08:33 | 38.77967 | 115.93015 | 40001 ft | 456 kts | 34° |
| 2026-04-30 08:34 | 38.82823 | 115.98265 | 39994 ft | 456 kts | 35° |
| 2026-04-30 08:34 | 38.87680 | 116.03517 | 39994 ft | 456 kts | 35° |
| 2026-04-30 08:35 | 38.92539 | 116.08777 | 39987 ft | 456 kts | 35° |
| 2026-04-30 08:35 | 38.97389 | 116.14037 | 39989 ft | 457 kts | 35° |
| 2026-04-30 08:36 | 39.02453 | 116.18742 | 39986 ft | 445 kts | 18° |
| 2026-04-30 08:36 | 39.05397 | 116.19755 | 39984 ft | 434 kts | 2° |
| 2026-04-30 08:36 | 39.08383 | 116.19656 | 39987 ft | 429 kts | 350° |
| 2026-04-30 08:37 | 39.14316 | 116.18513 | 39982 ft | 432 kts | 349° |
| 2026-04-30 08:37 | 39.20283 | 116.17470 | 39983 ft | 433 kts | 351° |
| 2026-04-30 08:38 | 39.26273 | 116.16519 | 39978 ft | 434 kts | 351° |
| 2026-04-30 08:38 | 39.32264 | 116.15599 | 39978 ft | 434 kts | 351° |
| 2026-04-30 08:39 | 39.38262 | 116.14684 | 39977 ft | 434 kts | 351° |
| 2026-04-30 08:39 | 39.44220 | 116.13777 | 39976 ft | 434 kts | 351° |
| 2026-04-30 08:40 | 39.50216 | 116.12864 | 39976 ft | 434 kts | 351° |
| 2026-04-30 08:40 | 39.56209 | 116.11949 | 39978 ft | 434 kts | 351° |
| 2026-04-30 08:41 | 39.62200 | 116.11031 | 39973 ft | 433 kts | 351° |
| 2026-04-30 08:41 | 39.68183 | 116.10113 | 39970 ft | 433 kts | 351° |
| 2026-04-30 08:42 | 39.74172 | 116.09193 | 39969 ft | 433 kts | 351° |
| 2026-04-30 08:42 | 39.80102 | 116.08282 | 39970 ft | 424 kts | 351° |
| 2026-04-30 08:42 | 39.83003 | 116.07923 | 39968 ft | 412 kts | 355° |
| 2026-04-30 08:43 | 39.85841 | 116.07848 | 39970 ft | 403 kts | 356° |
| 2026-04-30 08:43 | 39.91418 | 116.07856 | 39961 ft | 400 kts | 357° |
| 2026-04-30 08:44 | 39.96991 | 116.07871 | 39961 ft | 401 kts | 357° |
| 2026-04-30 08:44 | 40.02580 | 116.07881 | 39962 ft | 402 kts | 356° |
| 2026-04-30 08:45 | 40.08125 | 116.07472 | 39957 ft | 395 kts | 340° |
| 2026-04-30 08:45 | 40.10568 | 116.05918 | 39958 ft | 390 kts | 322° |
| 2026-04-30 08:45 | 40.12454 | 116.03393 | 39960 ft | 391 kts | 305° |
| 2026-04-30 08:46 | 40.15400 | 115.97382 | 39956 ft | 392 kts | 316° |
| 2026-04-30 08:46 | 40.19463 | 115.92611 | 39952 ft | 393 kts | 320° |
| 2026-04-30 08:46 | 40.21697 | 115.90578 | 39954 ft | 391 kts | 331° |
| 2026-04-30 08:47 | 40.24138 | 115.88992 | 39954 ft | 391 kts | 333° |
| 2026-04-30 08:47 | 40.29118 | 115.86118 | 39949 ft | 393 kts | 342° |
| 2026-04-30 08:48 | 40.34530 | 115.84982 | 39948 ft | 400 kts | 1° |
| 2026-04-30 08:48 | 40.37260 | 115.85825 | 39948 ft | 410 kts | 19° |
| 2026-04-30 08:48 | 40.39671 | 115.87794 | 39950 ft | 422 kts | 36° |
| 2026-04-30 08:48 | 40.41579 | 115.90784 | 39951 ft | 436 kts | 54° |
| 2026-04-30 08:49 | 40.42743 | 115.94515 | 39944 ft | 450 kts | 72° |
| 2026-04-30 08:49 | 40.43026 | 115.98657 | 39947 ft | 462 kts | 90° |
| 2026-04-30 08:49 | 40.42378 | 116.02810 | 39945 ft | 470 kts | 107° |
| 2026-04-30 08:50 | 40.40479 | 116.10997 | 39944 ft | 468 kts | 95° |
| 2026-04-30 08:50 | 40.39904 | 116.19454 | 39953 ft | 464 kts | 86° |
| 2026-04-30 08:51 | 40.39961 | 116.27548 | 39952 ft | 462 kts | 84° |
| 2026-04-30 08:51 | 40.40233 | 116.35937 | 39948 ft | 458 kts | 82° |
| 2026-04-30 08:52 | 40.40564 | 116.44192 | 39948 ft | 453 kts | 83° |
| 2026-04-30 08:52 | 40.40700 | 116.52447 | 39951 ft | 451 kts | 83° |
| 2026-04-30 08:52 | 40.40533 | 116.56566 | 39961 ft | 457 kts | 99° |
| 2026-04-30 08:53 | 40.39449 | 116.60497 | 39954 ft | 461 kts | 117° |
| 2026-04-30 08:53 | 40.37533 | 116.63865 | 39946 ft | 463 kts | 135° |
| 2026-04-30 08:53 | 40.34946 | 116.66371 | 39941 ft | 464 kts | 154° |
| 2026-04-30 08:53 | 40.31926 | 116.67794 | 39954 ft | 462 kts | 172° |
| 2026-04-30 08:54 | 40.28743 | 116.68004 | 39952 ft | 456 kts | 190° |
| 2026-04-30 08:54 | 40.24926 | 116.66515 | 39938 ft | 445 kts | 214° |
| 2026-04-30 08:55 | 40.19465 | 116.62723 | 39959 ft | 453 kts | 199° |
| 2026-04-30 08:55 | 40.13153 | 116.61590 | 39955 ft | 462 kts | 183° |
| 2026-04-30 08:56 | 40.06738 | 116.61915 | 39937 ft | 466 kts | 178° |
| 2026-04-30 08:56 | 40.00281 | 116.62492 | 39948 ft | 467 kts | 166° |
| 2026-04-30 08:56 | 39.97284 | 116.64089 | 39951 ft | 466 kts | 147° |
| 2026-04-30 08:57 | 39.94779 | 116.66732 | 39947 ft | 462 kts | 129° |
| 2026-04-30 08:57 | 39.92996 | 116.70167 | 39946 ft | 456 kts | 111° |
| 2026-04-30 08:57 | 39.92083 | 116.74074 | 39949 ft | 448 kts | 92° |
| 2026-04-30 08:57 | 39.92110 | 116.78068 | 39949 ft | 438 kts | 74° |
| 2026-04-30 08:58 | 39.93029 | 116.81743 | 39943 ft | 429 kts | 56° |
| 2026-04-30 08:58 | 39.94744 | 116.84869 | 39945 ft | 421 kts | 39° |
| 2026-04-30 08:58 | 39.97070 | 116.87101 | 39958 ft | 413 kts | 21° |
| 2026-04-30 08:58 | 39.99784 | 116.88231 | 39948 ft | 409 kts | 4° |
| 2026-04-30 08:59 | 40.02606 | 116.88161 | 39949 ft | 407 kts | 346° |
| 2026-04-30 08:59 | 40.05261 | 116.86911 | 39926 ft | 409 kts | 329° |
| 2026-04-30 08:59 | 40.07542 | 116.84674 | 39949 ft | 413 kts | 320° |
| 2026-04-30 08:59 | 40.09906 | 116.82532 | 39957 ft | 416 kts | 333° |
| 2026-04-30 09:00 | 40.12595 | 116.81074 | 39940 ft | 422 kts | 344° |
| 2026-04-30 09:00 | 40.15525 | 116.80619 | 39953 ft | 430 kts | 1° |
| 2026-04-30 09:00 | 40.18492 | 116.81350 | 39951 ft | 441 kts | 17° |
| 2026-04-30 09:00 | 40.21200 | 116.83201 | 39951 ft | 451 kts | 33° |
| 2026-04-30 09:01 | 40.23476 | 116.86090 | 39951 ft | 462 kts | 49° |
| 2026-04-30 09:01 | 40.25076 | 116.89773 | 39947 ft | 472 kts | 65° |
| 2026-04-30 09:01 | 40.25857 | 116.93981 | 39952 ft | 482 kts | 81° |
| 2026-04-30 09:01 | 40.25793 | 116.98394 | 39956 ft | 489 kts | 94° |
| 2026-04-30 09:02 | 40.24013 | 117.07058 | 39946 ft | 500 kts | 111° |
| 2026-04-30 09:02 | 40.20236 | 117.14724 | 39952 ft | 506 kts | 133° |
| 2026-04-30 09:03 | 40.17565 | 117.17730 | 39960 ft | 507 kts | 146° |
| 2026-04-30 09:03 | 40.14512 | 117.20033 | 39952 ft | 507 kts | 156° |
| 2026-04-30 09:03 | 40.11210 | 117.21603 | 39955 ft | 505 kts | 168° |
| 2026-04-30 09:03 | 40.07754 | 117.22384 | 39945 ft | 503 kts | 175° |
| 2026-04-30 09:04 | 40.00807 | 117.23223 | 39947 ft | 505 kts | 175° |
| 2026-04-30 09:04 | 39.93802 | 117.24136 | 39951 ft | 504 kts | 181° |
| 2026-04-30 09:05 | 39.90312 | 117.23813 | 39949 ft | 499 kts | 193° |
| 2026-04-30 09:05 | 39.86990 | 117.22604 | 39950 ft | 493 kts | 206° |
| 2026-04-30 09:05 | 39.83963 | 117.20587 | 39948 ft | 486 kts | 217° |
| 2026-04-30 09:05 | 39.81299 | 117.17923 | 39944 ft | 481 kts | 227° |
| 2026-04-30 09:06 | 39.77267 | 117.11236 | 39939 ft | 469 kts | 247° |
| 2026-04-30 09:06 | 39.75205 | 117.03363 | 39939 ft | 456 kts | 266° |
| 2026-04-30 09:07 | 39.75286 | 116.95245 | 39944 ft | 446 kts | 284° |
| 2026-04-30 09:07 | 39.77358 | 116.87750 | 39953 ft | 438 kts | 302° |
| 2026-04-30 09:08 | 39.81104 | 116.81603 | 39945 ft | 433 kts | 319° |
| 2026-04-30 09:08 | 39.86111 | 116.77358 | 39945 ft | 431 kts | 336° |
| 2026-04-30 09:09 | 39.91875 | 116.75346 | 39946 ft | 434 kts | 351° |
| 2026-04-30 09:09 | 39.97895 | 116.74462 | 39944 ft | 435 kts | 352° |
| 2026-04-30 09:10 | 40.03922 | 116.73625 | 39942 ft | 436 kts | 352° |
| 2026-04-30 09:10 | 40.09999 | 116.73776 | 39957 ft | 440 kts | 7° |
| 2026-04-30 09:11 | 40.15774 | 116.76390 | 39954 ft | 449 kts | 25° |
| 2026-04-30 09:11 | 40.20712 | 116.81516 | 39954 ft | 461 kts | 44° |
| 2026-04-30 09:12 | 40.24110 | 116.88740 | 39947 ft | 475 kts | 64° |
| 2026-04-30 09:12 | 40.25471 | 116.97270 | 39946 ft | 487 kts | 85° |
| 2026-04-30 09:13 | 40.25227 | 117.01720 | 39947 ft | 493 kts | 97° |
| 2026-04-30 09:13 | 40.24329 | 117.06070 | 39948 ft | 499 kts | 108° |
| 2026-04-30 09:13 | 40.22819 | 117.10171 | 39955 ft | 503 kts | 119° |
| 2026-04-30 09:13 | 40.20754 | 117.13872 | 39948 ft | 506 kts | 131° |
| 2026-04-30 09:14 | 40.18183 | 117.17019 | 39951 ft | 508 kts | 142° |
| 2026-04-30 09:14 | 40.15206 | 117.19493 | 39954 ft | 508 kts | 153° |
| 2026-04-30 09:14 | 40.12002 | 117.21282 | 39948 ft | 506 kts | 164° |
| 2026-04-30 09:14 | 40.08565 | 117.22262 | 39944 ft | 504 kts | 174° |
| 2026-04-30 09:15 | 40.01566 | 117.23114 | 39951 ft | 505 kts | 176° |
| 2026-04-30 09:15 | 39.94561 | 117.24063 | 39952 ft | 505 kts | 179° |
| 2026-04-30 09:16 | 39.91102 | 117.23936 | 39949 ft | 501 kts | 191° |
| 2026-04-30 09:16 | 39.87729 | 117.22932 | 39952 ft | 495 kts | 203° |
| 2026-04-30 09:16 | 39.84623 | 117.21084 | 39944 ft | 488 kts | 215° |
| 2026-04-30 09:16 | 39.81866 | 117.18542 | 39950 ft | 482 kts | 225° |
| 2026-04-30 09:17 | 39.77601 | 117.11995 | 39951 ft | 470 kts | 245° |
| 2026-04-30 09:17 | 39.75317 | 117.04204 | 39949 ft | 457 kts | 264° |
| 2026-04-30 09:18 | 39.75181 | 116.96078 | 39949 ft | 446 kts | 283° |
| 2026-04-30 09:18 | 39.77030 | 116.88552 | 39949 ft | 438 kts | 300° |
| 2026-04-30 09:19 | 39.80598 | 116.82220 | 39948 ft | 432 kts | 317° |
| 2026-04-30 09:19 | 39.85474 | 116.77741 | 39948 ft | 430 kts | 334° |
| 2026-04-30 09:20 | 39.90194 | 116.75695 | 39948 ft | 432 kts | 348° |
| 2026-04-30 09:20 | 39.97165 | 116.74562 | 39944 ft | 434 kts | 352° |
| 2026-04-30 09:21 | 40.03179 | 116.73725 | 39944 ft | 434 kts | 352° |
| 2026-04-30 09:21 | 40.09232 | 116.73627 | 39955 ft | 438 kts | 5° |
| 2026-04-30 09:22 | 40.14154 | 116.75365 | 39955 ft | 446 kts | 20° |
| 2026-04-30 09:22 | 40.19409 | 116.79795 | 39953 ft | 457 kts | 38° |
| 2026-04-30 09:23 | 40.23313 | 116.86474 | 39952 ft | 472 kts | 58° |
| 2026-04-30 09:23 | 40.25313 | 116.94736 | 39946 ft | 484 kts | 79° |
| 2026-04-30 09:24 | 40.25439 | 116.99173 | 39949 ft | 491 kts | 90° |
| 2026-04-30 09:24 | 40.24921 | 117.03609 | 39952 ft | 496 kts | 101° |
| 2026-04-30 09:24 | 40.23776 | 117.07833 | 39959 ft | 501 kts | 113° |
| 2026-04-30 09:24 | 40.22015 | 117.11786 | 39953 ft | 505 kts | 124° |
| 2026-04-30 09:25 | 40.19712 | 117.15268 | 39955 ft | 508 kts | 136° |
| 2026-04-30 09:25 | 40.16944 | 117.18134 | 39961 ft | 509 kts | 147° |
| 2026-04-30 09:25 | 40.10507 | 117.21845 | 39957 ft | 506 kts | 169° |
| 2026-04-30 09:26 | 40.03541 | 117.22907 | 39957 ft | 505 kts | 177° |
| 2026-04-30 09:26 | 39.96537 | 117.23837 | 39956 ft | 506 kts | 175° |
| 2026-04-30 09:27 | 39.89568 | 117.23585 | 39944 ft | 498 kts | 196° |
| 2026-04-30 09:27 | 39.86300 | 117.22181 | 39955 ft | 492 kts | 208° |
| 2026-04-30 09:27 | 39.83342 | 117.19997 | 39944 ft | 485 kts | 220° |
| 2026-04-30 09:28 | 39.78592 | 117.13937 | 39951 ft | 474 kts | 239° |
| 2026-04-30 09:28 | 39.75725 | 117.06418 | 39948 ft | 460 kts | 259° |
| 2026-04-30 09:29 | 39.75008 | 116.98353 | 39944 ft | 448 kts | 278° |
| 2026-04-30 09:29 | 39.76336 | 116.90553 | 39949 ft | 440 kts | 295° |
| 2026-04-30 09:30 | 39.79456 | 116.83826 | 39953 ft | 433 kts | 312° |
| 2026-04-30 09:30 | 39.83999 | 116.78782 | 39950 ft | 429 kts | 329° |
| 2026-04-30 09:31 | 39.89518 | 116.75878 | 39951 ft | 430 kts | 346° |
| 2026-04-30 09:31 | 39.95475 | 116.74796 | 39951 ft | 433 kts | 352° |
| 2026-04-30 09:32 | 40.01438 | 116.73970 | 39947 ft | 433 kts | 352° |
| 2026-04-30 09:32 | 40.07460 | 116.73439 | 39948 ft | 436 kts | 360° |
| 2026-04-30 09:33 | 40.13442 | 116.74991 | 39955 ft | 444 kts | 17° |